Terminal Aerodrome Forecast
Issued by NWS Springfield, MO

Home | Current Version | Previous Version | Text Only | Print | Product List | Glossary On
Versions: 1 2 3 4 5 6 7 8 9 10 11 12 13 14 15 16 17 18 19 20 21 22 23 24 25 26 27 28 29 30 31 32 33
958
FTUS43 KSGF 231903 AAA
TAFSGF
TAF AMD
KSGF 231903Z 2319/2418 VRB03KT P6SM OVC010
     FM232100 09005KT 4SM SHRA BR BKN007 OVC015
     FM240500 12012KT 4SM -DZ BR VCSH OVC005
      TEMPO 2408/2412 2SM SHRA BR OVC003
     FM241200 14010KT 4SM -DZ BR BKN003 OVC007=

USA.gov is the U.S. government's official web portal to all federal, state and local government web resources and services.